Main page
METAR-TAF:

METAR-TAF

Airports :

Vaasa Airport

Vaasa, Finland

latitude: 63-03N, longitude: 021-46E, elevation: 4 m

Current weather observation

The report was made 28 minutes ago, at 20:50 UTC
Wind 17 kt from the South/Southwest
Temperature 5°C
Humidity 81%
Pressure 974 hPa
Visibility 10 km or more
Overcast at a height of 1900 ft
light rain

METAR: EFVA 172050Z AUTO 21017KT 9999 -RA OVC019 05/02 Q0974 REUP

Time: 23:18 (21:18 UTC)

Forecast

The report was made 50 minutes ago, at 20:28 UTC
Forecast valid from 17 at 21 UTC to 18 at 21 UTC
Wind 15 kt from the South/Southwest
Visibility 10 km or more
Broken clouds at a height of 3000 ft
Temporary
from 17 at 21 UTC to 18 at 01 UTC
Wind 16 kt from the South/Southwest with gusts up to 27 kt
Visibility: 7000 m
Broken clouds at a height of 1200 ft

TAF: EFVA 172028Z 1721/1821 21015KT 9999 BKN030 TEMPO 1721/1801 21016G27KT 7000 BKN012

Weather observations and forecasts of more than 4000 airports (METAR and TAF reports).

The available stations are represented by yellow and red dots on the map.

Hover mouse over dot to see the name of the station.

Then click to see weather observations and forecasts.

To change the map : click on the green buttons with a black cross to zoom in, on the green button with a dash to zoom out, or on the green arrows for adjacent maps.


METAR-TAF: